sensor_id;sensor_type;location;lat;lon;timestamp;P1;P2;P0
74880;PMS5003;63427;49.654;6.596;2023-01-16T00:01:22;1;1;
74880;PMS5003;63427;49.654;6.596;2023-01-16T00:03:48;2;2;
74880;PMS5003;63427;49.654;6.596;2023-01-16T00:06:13;2;1;
74880;PMS5003;63427;49.654;6.596;2023-01-16T00:08:40;0;0;
74880;PMS5003;63427;49.654;6.596;2023-01-16T00:11:05;1;1;
74880;PMS5003;63427;49.654;6.596;2023-01-16T00:13:30;1;1;
74880;PMS5003;63427;49.654;6.596;2023-01-16T00:15:56;1;1;
74880;PMS5003;63427;49.654;6.596;2023-01-16T00:18:22;1;1;
74880;PMS5003;63427;49.654;6.596;2023-01-16T00:20:48;2;2;
74880;PMS5003;63427;49.654;6.596;2023-01-16T00:23:13;3;1;
74880;PMS5003;63427;49.654;6.596;2023-01-16T00:25:39;1;0;
74880;PMS5003;63427;49.654;6.596;2023-01-16T00:28:05;3;2;
74880;PMS5003;63427;49.654;6.596;2023-01-16T00:30:31;2;2;
74880;PMS5003;63427;49.654;6.596;2023-01-16T00:32:56;1;0;
74880;PMS5003;63427;49.654;6.596;2023-01-16T00:35:22;2;1;
74880;PMS5003;63427;49.654;6.596;2023-01-16T00:37:48;1;1;
74880;PMS5003;63427;49.654;6.596;2023-01-16T00:40:13;1;0;
74880;PMS5003;63427;49.654;6.596;2023-01-16T00:42:39;0;0;
74880;PMS5003;63427;49.654;6.596;2023-01-16T00:45:05;1;1;
74880;PMS5003;63427;49.654;6.596;2023-01-16T00:47:30;1;1;
74880;PMS5003;63427;49.654;6.596;2023-01-16T00:49:56;1;1;
74880;PMS5003;63427;49.654;6.596;2023-01-16T00:52:22;0;0;
74880;PMS5003;63427;49.654;6.596;2023-01-16T00:54:48;1;1;
74880;PMS5003;63427;49.654;6.596;2023-01-16T00:57:13;0;0;
74880;PMS5003;63427;49.654;6.596;2023-01-16T00:59:39;1;1;
74880;PMS5003;63427;49.654;6.596;2023-01-16T01:02:05;1;1;
74880;PMS5003;63427;49.654;6.596;2023-01-16T01:04:30;1;1;
74880;PMS5003;63427;49.654;6.596;2023-01-16T01:06:56;1;1;
74880;PMS5003;63427;49.654;6.596;2023-01-16T01:09:22;1;1;
74880;PMS5003;63427;49.654;6.596;2023-01-16T01:11:47;1;1;
74880;PMS5003;63427;49.654;6.596;2023-01-16T01:14:13;1;1;
74880;PMS5003;63427;49.654;6.596;2023-01-16T01:16:39;1;1;
74880;PMS5003;63427;49.654;6.596;2023-01-16T01:19:05;1;1;
74880;PMS5003;63427;49.654;6.596;2023-01-16T01:21:30;1;1;
74880;PMS5003;63427;49.654;6.596;2023-01-16T01:23:56;1;1;
74880;PMS5003;63427;49.654;6.596;2023-01-16T01:26:22;3;1;
74880;PMS5003;63427;49.654;6.596;2023-01-16T01:28:47;1;1;
74880;PMS5003;63427;49.654;6.596;2023-01-16T01:31:13;2;2;
74880;PMS5003;63427;49.654;6.596;2023-01-16T01:33:39;1;1;
74880;PMS5003;63427;49.654;6.596;2023-01-16T01:36:05;3;1;
74880;PMS5003;63427;49.654;6.596;2023-01-16T01:38:30;1;1;
74880;PMS5003;63427;49.654;6.596;2023-01-16T01:40:56;1;1;
74880;PMS5003;63427;49.654;6.596;2023-01-16T01:43:41;2;1;
74880;PMS5003;63427;49.654;6.596;2023-01-16T01:45:48;1;1;
74880;PMS5003;63427;49.654;6.596;2023-01-16T01:48:17;1;1;
74880;PMS5003;63427;49.654;6.596;2023-01-16T01:50:40;0;0;
74880;PMS5003;63427;49.654;6.596;2023-01-16T01:53:06;1;1;
74880;PMS5003;63427;49.654;6.596;2023-01-16T01:55:30;2;0;
74880;PMS5003;63427;49.654;6.596;2023-01-16T01:57:57;1;1;
74880;PMS5003;63427;49.654;6.596;2023-01-16T02:00:22;1;1;
74880;PMS5003;63427;49.654;6.596;2023-01-16T02:02:48;0;0;
74880;PMS5003;63427;49.654;6.596;2023-01-16T02:05:14;1;1;
74880;PMS5003;63427;49.654;6.596;2023-01-16T02:07:39;0;0;
74880;PMS5003;63427;49.654;6.596;2023-01-16T02:10:08;1;1;
74880;PMS5003;63427;49.654;6.596;2023-01-16T02:12:30;0;0;
74880;PMS5003;63427;49.654;6.596;2023-01-16T02:14:56;1;1;
74880;PMS5003;63427;49.654;6.596;2023-01-16T02:17:22;1;1;
74880;PMS5003;63427;49.654;6.596;2023-01-16T02:19:49;1;1;
74880;PMS5003;63427;49.654;6.596;2023-01-16T02:27:08;1;1;
74880;PMS5003;63427;49.654;6.596;2023-01-16T02:31:58;2;2;
74880;PMS5003;63427;49.654;6.596;2023-01-16T02:34:26;1;1;
74880;PMS5003;63427;49.654;6.596;2023-01-16T02:36:49;1;1;
74880;PMS5003;63427;49.654;6.596;2023-01-16T02:39:16;1;1;
74880;PMS5003;63427;49.654;6.596;2023-01-16T02:41:41;1;1;
74880;PMS5003;63427;49.654;6.596;2023-01-16T02:44:07;2;2;
74880;PMS5003;63427;49.654;6.596;2023-01-16T02:46:32;2;2;
74880;PMS5003;63427;49.654;6.596;2023-01-16T02:48:59;1;1;
74880;PMS5003;63427;49.654;6.596;2023-01-16T02:51:23;3;3;
74880;PMS5003;63427;49.654;6.596;2023-01-16T02:53:48;0;0;
74880;PMS5003;63427;49.654;6.596;2023-01-16T02:56:14;2;2;
74880;PMS5003;63427;49.654;6.596;2023-01-16T02:58:41;2;2;
74880;PMS5003;63427;49.654;6.596;2023-01-16T03:01:05;2;2;
74880;PMS5003;63427;49.654;6.596;2023-01-16T03:03:36;0;0;
74880;PMS5003;63427;49.654;6.596;2023-01-16T03:05:56;2;2;
74880;PMS5003;63427;49.654;6.596;2023-01-16T03:08:25;1;1;
74880;PMS5003;63427;49.654;6.596;2023-01-16T03:10:52;1;1;
74880;PMS5003;63427;49.654;6.596;2023-01-16T03:13:17;2;1;
74880;PMS5003;63427;49.654;6.596;2023-01-16T03:15:41;2;2;
74880;PMS5003;63427;49.654;6.596;2023-01-16T03:18:08;3;2;
74880;PMS5003;63427;49.654;6.596;2023-01-16T03:20:33;4;3;
74880;PMS5003;63427;49.654;6.596;2023-01-16T03:22:59;4;4;
74880;PMS5003;63427;49.654;6.596;2023-01-16T03:25:24;3;3;
74880;PMS5003;63427;49.654;6.596;2023-01-16T03:27:50;3;3;
74880;PMS5003;63427;49.654;6.596;2023-01-16T03:30:14;4;4;
74880;PMS5003;63427;49.654;6.596;2023-01-16T03:32:41;3;3;
74880;PMS5003;63427;49.654;6.596;2023-01-16T03:35:06;4;4;
74880;PMS5003;63427;49.654;6.596;2023-01-16T03:37:32;4;4;
74880;PMS5003;63427;49.654;6.596;2023-01-16T03:39:57;4;4;
74880;PMS5003;63427;49.654;6.596;2023-01-16T03:42:23;4;4;
74880;PMS5003;63427;49.654;6.596;2023-01-16T03:44:50;3;3;
74880;PMS5003;63427;49.654;6.596;2023-01-16T03:47:14;4;3;
74880;PMS5003;63427;49.654;6.596;2023-01-16T03:49:40;4;4;
74880;PMS5003;63427;49.654;6.596;2023-01-16T03:52:06;4;4;
74880;PMS5003;63427;49.654;6.596;2023-01-16T03:54:32;4;4;
74880;PMS5003;63427;49.654;6.596;2023-01-16T03:56:59;3;3;
74880;PMS5003;63427;49.654;6.596;2023-01-16T03:59:22;4;4;
74880;PMS5003;63427;49.654;6.596;2023-01-16T04:01:49;4;4;
74880;PMS5003;63427;49.654;6.596;2023-01-16T04:04:15;4;4;
74880;PMS5003;63427;49.654;6.596;2023-01-16T04:06:41;4;4;
74880;PMS5003;63427;49.654;6.596;2023-01-16T04:09:06;5;5;
74880;PMS5003;63427;49.654;6.596;2023-01-16T04:11:31;4;4;
74880;PMS5003;63427;49.654;6.596;2023-01-16T04:13:57;4;3;
74880;PMS5003;63427;49.654;6.596;2023-01-16T04:16:23;3;3;
74880;PMS5003;63427;49.654;6.596;2023-01-16T04:18:49;4;4;
74880;PMS5003;63427;49.654;6.596;2023-01-16T04:21:14;7;5;
74880;PMS5003;63427;49.654;6.596;2023-01-16T04:23:40;4;4;
74880;PMS5003;63427;49.654;6.596;2023-01-16T04:26:06;4;4;
74880;PMS5003;63427;49.654;6.596;2023-01-16T04:28:31;7;6;
74880;PMS5003;63427;49.654;6.596;2023-01-16T04:30:57;6;5;
74880;PMS5003;63427;49.654;6.596;2023-01-16T04:33:23;5;4;
74880;PMS5003;63427;49.654;6.596;2023-01-16T04:35:48;5;5;
74880;PMS5003;63427;49.654;6.596;2023-01-16T04:38:14;4;4;
74880;PMS5003;63427;49.654;6.596;2023-01-16T04:40:40;4;4;
74880;PMS5003;63427;49.654;6.596;2023-01-16T04:43:06;7;6;
74880;PMS5003;63427;49.654;6.596;2023-01-16T04:45:31;5;5;
74880;PMS5003;63427;49.654;6.596;2023-01-16T04:47:57;4;4;
74880;PMS5003;63427;49.654;6.596;2023-01-16T04:50:22;7;7;
74880;PMS5003;63427;49.654;6.596;2023-01-16T04:52:48;6;6;
74880;PMS5003;63427;49.654;6.596;2023-01-16T04:55:14;6;6;
74880;PMS5003;63427;49.654;6.596;2023-01-16T04:57:40;3;3;
74880;PMS5003;63427;49.654;6.596;2023-01-16T05:00:08;3;3;
74880;PMS5003;63427;49.654;6.596;2023-01-16T05:02:31;4;4;
74880;PMS5003;63427;49.654;6.596;2023-01-16T05:04:56;4;3;
74880;PMS5003;63427;49.654;6.596;2023-01-16T05:07:22;4;4;
74880;PMS5003;63427;49.654;6.596;2023-01-16T05:09:48;3;3;
74880;PMS5003;63427;49.654;6.596;2023-01-16T05:12:14;4;4;
74880;PMS5003;63427;49.654;6.596;2023-01-16T05:14:39;6;5;
74880;PMS5003;63427;49.654;6.596;2023-01-16T05:17:05;3;3;
74880;PMS5003;63427;49.654;6.596;2023-01-16T05:19:31;2;2;
74880;PMS5003;63427;49.654;6.596;2023-01-16T05:21:57;2;2;
74880;PMS5003;63427;49.654;6.596;2023-01-16T05:24:22;3;3;
74880;PMS5003;63427;49.654;6.596;2023-01-16T05:26:48;3;3;
74880;PMS5003;63427;49.654;6.596;2023-01-16T05:29:14;2;2;
74880;PMS5003;63427;49.654;6.596;2023-01-16T05:31:39;1;1;
74880;PMS5003;63427;49.654;6.596;2023-01-16T05:34:05;1;0;
74880;PMS5003;63427;49.654;6.596;2023-01-16T05:36:31;3;2;
74880;PMS5003;63427;49.654;6.596;2023-01-16T05:38:57;2;1;
74880;PMS5003;63427;49.654;6.596;2023-01-16T05:41:22;1;1;
74880;PMS5003;63427;49.654;6.596;2023-01-16T05:43:48;1;1;
74880;PMS5003;63427;49.654;6.596;2023-01-16T05:46:14;2;2;
74880;PMS5003;63427;49.654;6.596;2023-01-16T05:48:40;1;1;
74880;PMS5003;63427;49.654;6.596;2023-01-16T05:51:06;1;1;
74880;PMS5003;63427;49.654;6.596;2023-01-16T05:53:31;1;1;
74880;PMS5003;63427;49.654;6.596;2023-01-16T05:55:57;3;2;
74880;PMS5003;63427;49.654;6.596;2023-01-16T05:58:23;1;1;
74880;PMS5003;63427;49.654;6.596;2023-01-16T06:00:48;2;2;
74880;PMS5003;63427;49.654;6.596;2023-01-16T06:03:14;1;1;
74880;PMS5003;63427;49.654;6.596;2023-01-16T06:05:40;1;1;
74880;PMS5003;63427;49.654;6.596;2023-01-16T06:08:06;2;2;
74880;PMS5003;63427;49.654;6.596;2023-01-16T06:10:31;0;0;
74880;PMS5003;63427;49.654;6.596;2023-01-16T06:12:57;0;0;
74880;PMS5003;63427;49.654;6.596;2023-01-16T06:15:23;1;1;
74880;PMS5003;63427;49.654;6.596;2023-01-16T06:17:48;1;1;
74880;PMS5003;63427;49.654;6.596;2023-01-16T06:20:15;2;2;
74880;PMS5003;63427;49.654;6.596;2023-01-16T06:22:40;2;2;
74880;PMS5003;63427;49.654;6.596;2023-01-16T06:25:06;2;1;
74880;PMS5003;63427;49.654;6.596;2023-01-16T06:27:31;1;1;
74880;PMS5003;63427;49.654;6.596;2023-01-16T06:29:57;1;1;
74880;PMS5003;63427;49.654;6.596;2023-01-16T06:32:23;1;1;
74880;PMS5003;63427;49.654;6.596;2023-01-16T06:34:49;1;1;
74880;PMS5003;63427;49.654;6.596;2023-01-16T06:37:14;0;0;
74880;PMS5003;63427;49.654;6.596;2023-01-16T06:39:40;0;0;
74880;PMS5003;63427;49.654;6.596;2023-01-16T06:42:06;2;2;
74880;PMS5003;63427;49.654;6.596;2023-01-16T06:44:32;2;1;
74880;PMS5003;63427;49.654;6.596;2023-01-16T06:46:58;2;2;
74880;PMS5003;63427;49.654;6.596;2023-01-16T06:49:23;1;1;
74880;PMS5003;63427;49.654;6.596;2023-01-16T06:51:49;0;0;
74880;PMS5003;63427;49.654;6.596;2023-01-16T06:54:14;1;1;
74880;PMS5003;63427;49.654;6.596;2023-01-16T06:56:40;2;2;
74880;PMS5003;63427;49.654;6.596;2023-01-16T06:59:06;1;1;
74880;PMS5003;63427;49.654;6.596;2023-01-16T07:01:32;2;2;
74880;PMS5003;63427;49.654;6.596;2023-01-16T07:03:57;1;1;
74880;PMS5003;63427;49.654;6.596;2023-01-16T07:06:23;1;1;
74880;PMS5003;63427;49.654;6.596;2023-01-16T07:08:49;0;0;
74880;PMS5003;63427;49.654;6.596;2023-01-16T07:11:15;2;1;
74880;PMS5003;63427;49.654;6.596;2023-01-16T07:13:40;1;1;
74880;PMS5003;63427;49.654;6.596;2023-01-16T07:16:08;1;1;
74880;PMS5003;63427;49.654;6.596;2023-01-16T07:18:32;1;1;
74880;PMS5003;63427;49.654;6.596;2023-01-16T07:20:59;0;0;
74880;PMS5003;63427;49.654;6.596;2023-01-16T07:23:24;1;1;
74880;PMS5003;63427;49.654;6.596;2023-01-16T07:25:49;2;2;
74880;PMS5003;63427;49.654;6.596;2023-01-16T07:28:15;2;2;
74880;PMS5003;63427;49.654;6.596;2023-01-16T07:30:41;0;0;
74880;PMS5003;63427;49.654;6.596;2023-01-16T07:33:06;0;0;
74880;PMS5003;63427;49.654;6.596;2023-01-16T07:35:32;1;0;
74880;PMS5003;63427;49.654;6.596;2023-01-16T07:37:58;1;1;
74880;PMS5003;63427;49.654;6.596;2023-01-16T07:40:24;0;0;
74880;PMS5003;63427;49.654;6.596;2023-01-16T07:42:50;0;0;
74880;PMS5003;63427;49.654;6.596;2023-01-16T07:45:15;0;0;
74880;PMS5003;63427;49.654;6.596;2023-01-16T07:47:41;0;0;
74880;PMS5003;63427;49.654;6.596;2023-01-16T07:50:07;0;0;
74880;PMS5003;63427;49.654;6.596;2023-01-16T07:52:33;0;0;
74880;PMS5003;63427;49.654;6.596;2023-01-16T07:54:58;0;0;
74880;PMS5003;63427;49.654;6.596;2023-01-16T07:57:24;0;0;
74880;PMS5003;63427;49.654;6.596;2023-01-16T07:59:50;1;1;
74880;PMS5003;63427;49.654;6.596;2023-01-16T08:02:16;1;1;
74880;PMS5003;63427;49.654;6.596;2023-01-16T08:04:41;1;1;
74880;PMS5003;63427;49.654;6.596;2023-01-16T08:07:07;0;0;
74880;PMS5003;63427;49.654;6.596;2023-01-16T08:09:33;0;0;
74880;PMS5003;63427;49.654;6.596;2023-01-16T08:11:59;0;0;
74880;PMS5003;63427;49.654;6.596;2023-01-16T08:14:24;1;0;
74880;PMS5003;63427;49.654;6.596;2023-01-16T08:16:50;1;1;
74880;PMS5003;63427;49.654;6.596;2023-01-16T08:19:16;1;0;
74880;PMS5003;63427;49.654;6.596;2023-01-16T08:21:42;0;0;
74880;PMS5003;63427;49.654;6.596;2023-01-16T08:24:08;1;1;
74880;PMS5003;63427;49.654;6.596;2023-01-16T08:26:34;1;1;
74880;PMS5003;63427;49.654;6.596;2023-01-16T08:28:59;0;0;
74880;PMS5003;63427;49.654;6.596;2023-01-16T08:31:25;1;0;
74880;PMS5003;63427;49.654;6.596;2023-01-16T08:33:51;1;1;
74880;PMS5003;63427;49.654;6.596;2023-01-16T08:36:16;1;1;
74880;PMS5003;63427;49.654;6.596;2023-01-16T08:38:42;0;0;
74880;PMS5003;63427;49.654;6.596;2023-01-16T08:41:08;0;0;
74880;PMS5003;63427;49.654;6.596;2023-01-16T08:43:34;1;1;
74880;PMS5003;63427;49.654;6.596;2023-01-16T08:45:59;1;1;
74880;PMS5003;63427;49.654;6.596;2023-01-16T08:48:26;2;1;
74880;PMS5003;63427;49.654;6.596;2023-01-16T08:50:51;1;1;
74880;PMS5003;63427;49.654;6.596;2023-01-16T08:53:17;1;1;
74880;PMS5003;63427;49.654;6.596;2023-01-16T08:55:42;1;1;
74880;PMS5003;63427;49.654;6.596;2023-01-16T08:58:08;2;2;
74880;PMS5003;63427;49.654;6.596;2023-01-16T09:00:34;0;0;
74880;PMS5003;63427;49.654;6.596;2023-01-16T09:03:00;1;1;
74880;PMS5003;63427;49.654;6.596;2023-01-16T09:05:26;1;1;
74880;PMS5003;63427;49.654;6.596;2023-01-16T09:07:52;1;0;
74880;PMS5003;63427;49.654;6.596;2023-01-16T09:10:17;1;1;
74880;PMS5003;63427;49.654;6.596;2023-01-16T09:12:43;1;1;
74880;PMS5003;63427;49.654;6.596;2023-01-16T09:15:09;2;2;
74880;PMS5003;63427;49.654;6.596;2023-01-16T09:17:34;1;1;
74880;PMS5003;63427;49.654;6.596;2023-01-16T09:20:00;1;1;
74880;PMS5003;63427;49.654;6.596;2023-01-16T09:22:26;1;1;
74880;PMS5003;63427;49.654;6.596;2023-01-16T09:24:52;2;2;
74880;PMS5003;63427;49.654;6.596;2023-01-16T09:27:17;1;1;
74880;PMS5003;63427;49.654;6.596;2023-01-16T09:29:43;2;2;
74880;PMS5003;63427;49.654;6.596;2023-01-16T09:32:09;2;2;
74880;PMS5003;63427;49.654;6.596;2023-01-16T09:34:35;1;1;
74880;PMS5003;63427;49.654;6.596;2023-01-16T09:37:00;1;1;
74880;PMS5003;63427;49.654;6.596;2023-01-16T09:39:26;1;1;
74880;PMS5003;63427;49.654;6.596;2023-01-16T09:41:55;2;2;
74880;PMS5003;63427;49.654;6.596;2023-01-16T09:44:17;2;2;
74880;PMS5003;63427;49.654;6.596;2023-01-16T09:46:44;1;1;
74880;PMS5003;63427;49.654;6.596;2023-01-16T09:49:12;1;1;
74880;PMS5003;63427;49.654;6.596;2023-01-16T09:51:35;1;1;
74880;PMS5003;63427;49.654;6.596;2023-01-16T09:54:01;2;2;
74880;PMS5003;63427;49.654;6.596;2023-01-16T09:56:27;1;1;
74880;PMS5003;63427;49.654;6.596;2023-01-16T09:58:56;1;1;
74880;PMS5003;63427;49.654;6.596;2023-01-16T10:01:19;1;1;
74880;PMS5003;63427;49.654;6.596;2023-01-16T10:03:43;1;1;
74880;PMS5003;63427;49.654;6.596;2023-01-16T10:06:12;1;1;
74880;PMS5003;63427;49.654;6.596;2023-01-16T10:08:35;2;2;
74880;PMS5003;63427;49.654;6.596;2023-01-16T10:11:03;1;1;
74880;PMS5003;63427;49.654;6.596;2023-01-16T10:15:53;1;1;
74880;PMS5003;63427;49.654;6.596;2023-01-16T10:18:20;0;0;
74880;PMS5003;63427;49.654;6.596;2023-01-16T10:20:46;1;1;
74880;PMS5003;63427;49.654;6.596;2023-01-16T10:23:12;0;0;
74880;PMS5003;63427;49.654;6.596;2023-01-16T10:25:37;1;1;
74880;PMS5003;63427;49.654;6.596;2023-01-16T10:28:04;1;1;
74880;PMS5003;63427;49.654;6.596;2023-01-16T10:30:26;1;1;
74880;PMS5003;63427;49.654;6.596;2023-01-16T10:32:52;1;1;
74880;PMS5003;63427;49.654;6.596;2023-01-16T10:35:20;1;1;
74880;PMS5003;63427;49.654;6.596;2023-01-16T10:37:43;0;0;
74880;PMS5003;63427;49.654;6.596;2023-01-16T10:40:11;0;0;
74880;PMS5003;63427;49.654;6.596;2023-01-16T10:42:34;1;1;
74880;PMS5003;63427;49.654;6.596;2023-01-16T10:45:08;1;1;
74880;PMS5003;63427;49.654;6.596;2023-01-16T10:47:27;0;0;
74880;PMS5003;63427;49.654;6.596;2023-01-16T10:49:51;0;0;
74880;PMS5003;63427;49.654;6.596;2023-01-16T10:52:17;0;0;
74880;PMS5003;63427;49.654;6.596;2023-01-16T10:54:42;1;1;
74880;PMS5003;63427;49.654;6.596;2023-01-16T10:57:11;1;1;
74880;PMS5003;63427;49.654;6.596;2023-01-16T10:59:34;2;2;
74880;PMS5003;63427;49.654;6.596;2023-01-16T11:02:01;1;1;
74880;PMS5003;63427;49.654;6.596;2023-01-16T11:06:51;1;1;
74880;PMS5003;63427;49.654;6.596;2023-01-16T11:09:18;0;0;
74880;PMS5003;63427;49.654;6.596;2023-01-16T11:11:44;0;0;
74880;PMS5003;63427;49.654;6.596;2023-01-16T11:14:11;0;0;
74880;PMS5003;63427;49.654;6.596;2023-01-16T11:16:34;0;0;
74880;PMS5003;63427;49.654;6.596;2023-01-16T11:19:00;0;0;
74880;PMS5003;63427;49.654;6.596;2023-01-16T11:21:27;1;1;
74880;PMS5003;63427;49.654;6.596;2023-01-16T11:23:53;0;0;
74880;PMS5003;63427;49.654;6.596;2023-01-16T11:26:16;1;1;
74880;PMS5003;63427;49.654;6.596;2023-01-16T11:28:43;0;0;
74880;PMS5003;63427;49.654;6.596;2023-01-16T11:31:10;1;1;
74880;PMS5003;63427;49.654;6.596;2023-01-16T11:33:34;0;0;
74880;PMS5003;63427;49.654;6.596;2023-01-16T11:36:00;1;1;
74880;PMS5003;63427;49.654;6.596;2023-01-16T11:38:29;1;1;
74880;PMS5003;63427;49.654;6.596;2023-01-16T11:40:51;1;1;
74880;PMS5003;63427;49.654;6.596;2023-01-16T11:43:17;0;0;
74880;PMS5003;63427;49.654;6.596;2023-01-16T11:45:43;1;1;
74880;PMS5003;63427;49.654;6.596;2023-01-16T11:48:08;0;0;
74880;PMS5003;63427;49.654;6.596;2023-01-16T11:50:35;0;0;
74880;PMS5003;63427;49.654;6.596;2023-01-16T11:52:59;1;1;
74880;PMS5003;63427;49.654;6.596;2023-01-16T11:55:27;2;1;
74880;PMS5003;63427;49.654;6.596;2023-01-16T11:57:51;1;1;
74880;PMS5003;63427;49.654;6.596;2023-01-16T12:00:21;1;1;
74880;PMS5003;63427;49.654;6.596;2023-01-16T12:02:48;0;0;
74880;PMS5003;63427;49.654;6.596;2023-01-16T12:05:08;2;2;
74880;PMS5003;63427;49.654;6.596;2023-01-16T12:07:37;1;1;
74880;PMS5003;63427;49.654;6.596;2023-01-16T12:09:59;0;0;
74880;PMS5003;63427;49.654;6.596;2023-01-16T12:12:27;1;1;
74880;PMS5003;63427;49.654;6.596;2023-01-16T12:14:53;1;1;
74880;PMS5003;63427;49.654;6.596;2023-01-16T12:17:17;1;1;
74880;PMS5003;63427;49.654;6.596;2023-01-16T12:19:46;1;1;
74880;PMS5003;63427;49.654;6.596;2023-01-16T12:22:10;1;1;
74880;PMS5003;63427;49.654;6.596;2023-01-16T12:24:35;0;0;
74880;PMS5003;63427;49.654;6.596;2023-01-16T12:27:03;1;1;
74880;PMS5003;63427;49.654;6.596;2023-01-16T12:29:28;0;0;
74880;PMS5003;63427;49.654;6.596;2023-01-16T12:31:54;1;1;
74880;PMS5003;63427;49.654;6.596;2023-01-16T12:34:20;2;2;
74880;PMS5003;63427;49.654;6.596;2023-01-16T12:36:43;1;1;
74880;PMS5003;63427;49.654;6.596;2023-01-16T12:39:09;1;0;
74880;PMS5003;63427;49.654;6.596;2023-01-16T12:41:33;1;1;
74880;PMS5003;63427;49.654;6.596;2023-01-16T12:44:05;1;1;
74880;PMS5003;63427;49.654;6.596;2023-01-16T12:46:26;1;1;
74880;PMS5003;63427;49.654;6.596;2023-01-16T12:48:53;1;1;
74880;PMS5003;63427;49.654;6.596;2023-01-16T12:51:21;1;1;
74880;PMS5003;63427;49.654;6.596;2023-01-16T12:53:48;2;2;
74880;PMS5003;63427;49.654;6.596;2023-01-16T12:56:13;1;1;
74880;PMS5003;63427;49.654;6.596;2023-01-16T12:58:33;0;0;
74880;PMS5003;63427;49.654;6.596;2023-01-16T13:01:02;1;1;
74880;PMS5003;63427;49.654;6.596;2023-01-16T13:03:26;1;1;
74880;PMS5003;63427;49.654;6.596;2023-01-16T13:05:49;1;1;
74880;PMS5003;63427;49.654;6.596;2023-01-16T13:08:17;2;2;
74880;PMS5003;63427;49.654;6.596;2023-01-16T13:10:42;1;1;
74880;PMS5003;63427;49.654;6.596;2023-01-16T13:13:08;1;1;
74880;PMS5003;63427;49.654;6.596;2023-01-16T13:15:33;1;1;
74880;PMS5003;63427;49.654;6.596;2023-01-16T13:17:58;1;1;
74880;PMS5003;63427;49.654;6.596;2023-01-16T13:20:24;2;2;
74880;PMS5003;63427;49.654;6.596;2023-01-16T13:22:50;0;0;
74880;PMS5003;63427;49.654;6.596;2023-01-16T13:25:17;1;1;
74880;PMS5003;63427;49.654;6.596;2023-01-16T13:27:41;0;0;
74880;PMS5003;63427;49.654;6.596;2023-01-16T13:30:08;0;0;
74880;PMS5003;63427;49.654;6.596;2023-01-16T13:32:33;0;0;
74880;PMS5003;63427;49.654;6.596;2023-01-16T13:34:59;0;0;
74880;PMS5003;63427;49.654;6.596;2023-01-16T13:39:57;0;0;
74880;PMS5003;63427;49.654;6.596;2023-01-16T13:42:15;0;0;
74880;PMS5003;63427;49.654;6.596;2023-01-16T13:44:41;0;0;
74880;PMS5003;63427;49.654;6.596;2023-01-16T13:47:07;0;0;
74880;PMS5003;63427;49.654;6.596;2023-01-16T13:49:32;0;0;
74880;PMS5003;63427;49.654;6.596;2023-01-16T13:52:00;0;0;
74880;PMS5003;63427;49.654;6.596;2023-01-16T13:54:34;0;0;
74880;PMS5003;63427;49.654;6.596;2023-01-16T13:56:56;1;1;
74880;PMS5003;63427;49.654;6.596;2023-01-16T13:59:20;0;0;
74880;PMS5003;63427;49.654;6.596;2023-01-16T14:04:10;0;0;
74880;PMS5003;63427;49.654;6.596;2023-01-16T14:06:36;0;0;
74880;PMS5003;63427;49.654;6.596;2023-01-16T14:11:27;0;0;
74880;PMS5003;63427;49.654;6.596;2023-01-16T14:13:49;0;0;
74880;PMS5003;63427;49.654;6.596;2023-01-16T14:18:41;0;0;
74880;PMS5003;63427;49.654;6.596;2023-01-16T14:21:09;0;0;
74880;PMS5003;63427;49.654;6.596;2023-01-16T14:23:34;0;0;
74880;PMS5003;63427;49.654;6.596;2023-01-16T14:25:58;0;0;
74880;PMS5003;63427;49.654;6.596;2023-01-16T14:28:23;0;0;
74880;PMS5003;63427;49.654;6.596;2023-01-16T14:30:49;0;0;
74880;PMS5003;63427;49.654;6.596;2023-01-16T14:33:16;0;0;
74880;PMS5003;63427;49.654;6.596;2023-01-16T14:35:42;0;0;
74880;PMS5003;63427;49.654;6.596;2023-01-16T14:38:08;0;0;
74880;PMS5003;63427;49.654;6.596;2023-01-16T14:40:33;0;0;
74880;PMS5003;63427;49.654;6.596;2023-01-16T14:42:57;0;0;
74880;PMS5003;63427;49.654;6.596;2023-01-16T14:45:24;0;0;
74880;PMS5003;63427;49.654;6.596;2023-01-16T14:47:52;0;0;
74880;PMS5003;63427;49.654;6.596;2023-01-16T14:50:15;0;0;
74880;PMS5003;63427;49.654;6.596;2023-01-16T14:52:44;0;0;
74880;PMS5003;63427;49.654;6.596;2023-01-16T14:55:06;2;2;
74880;PMS5003;63427;49.654;6.596;2023-01-16T14:57:32;0;0;
74880;PMS5003;63427;49.654;6.596;2023-01-16T14:59:58;0;0;
74880;PMS5003;63427;49.654;6.596;2023-01-16T15:02:25;0;0;
74880;PMS5003;63427;49.654;6.596;2023-01-16T15:04:51;0;0;
74880;PMS5003;63427;49.654;6.596;2023-01-16T15:07:16;0;0;
74880;PMS5003;63427;49.654;6.596;2023-01-16T15:09:41;0;0;
74880;PMS5003;63427;49.654;6.596;2023-01-16T15:12:09;0;0;
74880;PMS5003;63427;49.654;6.596;2023-01-16T15:14:32;0;0;
74880;PMS5003;63427;49.654;6.596;2023-01-16T15:17:01;0;0;
74880;PMS5003;63427;49.654;6.596;2023-01-16T15:19:24;0;0;
74880;PMS5003;63427;49.654;6.596;2023-01-16T15:21:49;0;0;
74880;PMS5003;63427;49.654;6.596;2023-01-16T15:24:16;0;0;
74880;PMS5003;63427;49.654;6.596;2023-01-16T15:26:44;0;0;
74880;PMS5003;63427;49.654;6.596;2023-01-16T15:29:17;0;0;
74880;PMS5003;63427;49.654;6.596;2023-01-16T15:31:33;0;0;
74880;PMS5003;63427;49.654;6.596;2023-01-16T15:34:00;0;0;
74880;PMS5003;63427;49.654;6.596;2023-01-16T15:36:24;0;0;
74880;PMS5003;63427;49.654;6.596;2023-01-16T15:38:51;0;0;
74880;PMS5003;63427;49.654;6.596;2023-01-16T15:41:18;0;0;
74880;PMS5003;63427;49.654;6.596;2023-01-16T15:43:41;0;0;
74880;PMS5003;63427;49.654;6.596;2023-01-16T15:46:10;0;0;
74880;PMS5003;63427;49.654;6.596;2023-01-16T15:48:35;0;0;
74880;PMS5003;63427;49.654;6.596;2023-01-16T15:50:59;0;0;
74880;PMS5003;63427;49.654;6.596;2023-01-16T15:53:25;1;1;
74880;PMS5003;63427;49.654;6.596;2023-01-16T15:55:50;0;0;
74880;PMS5003;63427;49.654;6.596;2023-01-16T15:58:17;0;0;
74880;PMS5003;63427;49.654;6.596;2023-01-16T16:00:41;0;0;
74880;PMS5003;63427;49.654;6.596;2023-01-16T16:03:11;0;0;
74880;PMS5003;63427;49.654;6.596;2023-01-16T16:05:33;1;1;
74880;PMS5003;63427;49.654;6.596;2023-01-16T16:07:59;0;0;
74880;PMS5003;63427;49.654;6.596;2023-01-16T16:10:25;0;0;
74880;PMS5003;63427;49.654;6.596;2023-01-16T16:12:50;0;0;
74880;PMS5003;63427;49.654;6.596;2023-01-16T16:15:17;0;0;
74880;PMS5003;63427;49.654;6.596;2023-01-16T16:22:33;0;0;
74880;PMS5003;63427;49.654;6.596;2023-01-16T16:27:25;0;0;
74880;PMS5003;63427;49.654;6.596;2023-01-16T16:29:51;0;0;
74880;PMS5003;63427;49.654;6.596;2023-01-16T16:32:16;1;1;
74880;PMS5003;63427;49.654;6.596;2023-01-16T16:34:49;0;0;
74880;PMS5003;63427;49.654;6.596;2023-01-16T16:37:08;1;1;
74880;PMS5003;63427;49.654;6.596;2023-01-16T16:39:35;7;5;
74880;PMS5003;63427;49.654;6.596;2023-01-16T16:42:00;5;4;
74880;PMS5003;63427;49.654;6.596;2023-01-16T16:44:32;2;2;
74880;PMS5003;63427;49.654;6.596;2023-01-16T16:46:51;1;1;
74880;PMS5003;63427;49.654;6.596;2023-01-16T16:51:43;2;2;
74880;PMS5003;63427;49.654;6.596;2023-01-16T16:54:10;1;1;
74880;PMS5003;63427;49.654;6.596;2023-01-16T16:56:35;2;2;
74880;PMS5003;63427;49.654;6.596;2023-01-16T16:59:02;1;1;
74880;PMS5003;63427;49.654;6.596;2023-01-16T17:01:32;1;1;
74880;PMS5003;63427;49.654;6.596;2023-01-16T17:04:02;1;1;
74880;PMS5003;63427;49.654;6.596;2023-01-16T17:06:27;1;1;
74880;PMS5003;63427;49.654;6.596;2023-01-16T17:08:52;1;1;
74880;PMS5003;63427;49.654;6.596;2023-01-16T17:13:44;1;1;